Marathon, FL

11:42 PM EST on February 09, 2016 (GMT -0500)
APRSWXNET | | Change Station
CLOSE
Current Station
Personal Weather Station
Location: Marathon, FL
Elevation: 15 ft
Nearby Weather Stations

Elev 15 ft 24.74 °N, 80.98 °W | Updated 29 minutes ago

Mostly Cloudy
Mostly Cloudy
64 °F
Feels Like 64 °F
N
2
Wind Variable Wind from WSW
Gusts 8.0 mph

Today
High -- | Low -- °F
--% Chance of Precip.
Yesterday
High -- | Low -- °F
Precip. -- in
Pressure 30.13 in
Visibility 10.0 miles
Clouds Clear
Dew Point 57 °F
Humidity 78%
Rainfall in
Snow Depth Not available.
7:02 AM 6:14 PM
Waxing Crescent, 3% visible
METAR KNQX 100353Z AUTO 30007KT 10SM CLR 18/13 A3013 RMK AO2 SLP202 T01830133 $
Pressure 30.13 in
Visibility 10.0 miles
Clouds Clear
Dew Point 57 °F
Humidity 78%
Rainfall in
Snow Depth Not available.
7:02 AM 6:14 PM
Waxing Crescent, 3% visible
METAR KNQX 100353Z AUTO 30007KT 10SM CLR 18/13 A3013 RMK AO2 SLP202 T01830133 $

10-Day Weather Forecast

Almanac

Astronomy

Feb. 09, 2016 Rise Set
Actual Time
Civil Twilight
Nautical Twilight
Astronomical Twilight
Moon
Length of Visible Light
Length of Day
Tomorrow will be .
, % of the Moon is Illuminated

Today's Extremes

State Highs State Lows

Community

WunderPhotos

Upload Photos

1,891,810 photos uploaded!

WunderBlog® & News

Nearby

Air Quality

  Air Quality AQ Index Pollutant
Not available.

Snow Depth

Station Depth Elevation

Earthquake Activity

City Distance Mag. Time & Date
Minimum magnitude displayed is 2.5.

Coastal Water Temperatures

Place Temperature

Stations

Nearby Weather Stations

Station Location Temp. Windchill Dew Point Humidity Wind Precip. Elev Updated Type
                   

Watches & Warnings

There are currently no watches in effect.